Time;durP1;ratioP1;P1;durP2;ratioP2;P2;SDS_P1;SDS_P2;PMS_P1;PMS_P2;Temp;Humidity;BMP_temperature;BMP_pressure;BME280_temperature;BME280_humidity;BME280_pressure;Samples;Min_cycle;Max_cycle;Signal;HPM_P1;HPM_P2
2022/01/28 00:00:36;;;;;;;14.40;2.53;;;;;;;6.71;73.18;100663.53;5070476;28;20048;-61
2022/01/28 00:03:10;;;;;;;11.35;2.20;;;;;;;6.67;72.82;100672.34;5092433;28;20044;-60
2022/01/28 00:05:37;;;;;;;9.68;1.90;;;;;;;6.62;73.08;100669.88;5091022;28;20195;-60
2022/01/28 00:08:05;;;;;;;12.23;2.47;;;;;;;6.58;73.00;100681.31;5091983;28;20052;-60
2022/01/28 00:10:33;;;;;;;8.60;1.88;;;;;;;6.55;72.87;100681.38;5090560;28;20104;-60
2022/01/28 00:15:41;;;;;;;10.13;1.83;;;;;;;6.47;72.91;100699.91;5092326;28;20055;-62
2022/01/28 00:37:36;;;;;;;13.52;2.80;;;;;;;6.21;73.39;100702.22;5091797;28;20576;-61
2022/01/28 00:40:00;;;;;;;11.57;1.92;;;;;;;6.20;73.40;100702.28;5091361;28;20048;-60
2022/01/28 00:42:27;;;;;;;9.95;1.95;;;;;;;6.18;73.32;100711.91;5091672;28;20510;-60
2022/01/28 00:44:53;;;;;;;14.13;1.95;;;;;;;6.15;73.64;100723.28;5091449;28;20082;-60
2022/01/28 00:47:20;;;;;;;14.02;2.30;;;;;;;6.12;73.85;100732.06;5091756;28;20097;-60
2022/01/28 00:49:46;;;;;;;9.35;2.25;;;;;;;6.11;74.02;100729.50;5091095;28;20048;-60
2022/01/28 00:52:13;;;;;;;14.25;2.55;;;;;;;6.11;73.70;100750.41;5090680;28;20055;-60
2022/01/28 00:54:40;;;;;;;16.60;2.47;;;;;;;6.11;73.63;100747.78;5091198;28;20048;-59
2022/01/28 00:57:06;;;;;;;8.60;1.70;;;;;;;6.10;74.01;100757.38;5091458;28;20040;-62
2022/01/28 00:59:33;;;;;;;11.52;2.92;;;;;;;6.10;74.17;100754.75;5090947;28;20515;-60
2022/01/28 01:01:59;;;;;;;10.38;2.33;;;;;;;6.10;74.01;100770.44;5091152;28;20048;-60
2022/01/28 01:04:26;;;;;;;11.07;2.70;;;;;;;6.12;74.21;100767.78;5091209;28;20109;-60
2022/01/28 01:06:52;;;;;;;18.65;2.63;;;;;;;6.13;74.66;100765.16;5091209;28;20861;-60
2022/01/28 01:09:19;;;;;;;13.45;2.22;;;;;;;6.16;74.63;100768.59;5091005;28;20048;-60
2022/01/28 01:11:46;;;;;;;18.65;3.20;;;;;;;6.18;74.66;100775.53;5091041;28;20109;-61
2022/01/28 01:14:12;;;;;;;20.65;3.15;;;;;;;6.22;74.99;100778.91;5091155;28;20074;-62
2022/01/28 01:16:58;;;;;;;12.48;2.55;;;;;;;6.24;74.54;100779.72;5091147;28;20109;-63
2022/01/28 01:19:28;;;;;;;12.90;2.90;;;;;;;6.28;74.75;100789.22;5090799;28;20055;-61
2022/01/28 01:21:58;;;;;;;18.95;2.72;;;;;;;6.30;74.55;100791.81;5090957;28;20052;-63
2022/01/28 01:24:28;;;;;;;10.43;2.25;;;;;;;6.30;74.41;100787.44;5090948;28;20491;-60
2022/01/28 01:26:58;;;;;;;17.92;2.90;;;;;;;6.32;74.58;100797.88;5090960;28;20048;-60
2022/01/28 01:29:25;;;;;;;19.70;2.80;;;;;;;6.34;74.55;100801.31;5090628;28;20060;-60
2022/01/28 01:32:00;;;;;;;16.17;2.50;;;;;;;6.34;74.49;100799.56;5090726;28;20484;-60
2022/01/28 01:34:27;;;;;;;14.43;2.72;;;;;;;6.35;74.39;100795.19;5091191;28;20098;-59
2022/01/28 01:36:54;;;;;;;15.75;2.40;;;;;;;6.37;74.51;100806.47;5090852;28;20070;-60
2022/01/28 01:39:27;;;;;;;9.60;2.22;;;;;;;6.38;74.87;100814.28;5090769;28;20106;-60
2022/01/28 01:42:05;;;;;;;16.77;2.97;;;;;;;6.41;74.56;100809.88;5089382;28;20434;-60
2022/01/28 01:45:00;;;;;;;13.27;2.83;;;;;;;6.39;74.29;100808.16;5090857;28;20113;-60
2022/01/28 01:52:55;;;;;;;10.55;2.72;;;;;;;6.37;73.65;100817.81;5090651;28;20056;-60
2022/01/28 01:55:22;;;;;;;10.15;1.83;;;;;;;6.34;73.94;100815.25;5090542;28;20113;-60
2022/01/28 01:57:49;;;;;;;12.00;2.33;;;;;;;6.32;73.90;100817.03;5091035;28;20052;-60
2022/01/28 02:00:16;;;;;;;14.18;2.38;;;;;;;6.29;73.81;100822.34;5090469;28;20117;-62
2022/01/28 02:02:43;;;;;;;11.05;3.00;;;;;;;6.25;73.79;100818.91;5089716;28;20044;-59
2022/01/28 02:05:10;;;;;;;11.13;2.63;;;;;;;6.23;73.54;100828.56;5094279;28;20536;-62
2022/01/28 02:07:38;;;;;;;16.85;2.17;;;;;;;6.22;73.80;100832.09;5094508;28;20500;-61
2022/01/28 02:10:05;;;;;;;12.75;2.58;;;;;;;6.20;73.78;100846.09;5092970;28;20097;-60
2022/01/28 02:12:46;;;;;;;12.73;2.15;;;;;;;6.15;72.50;100847.91;5094350;28;20059;-60
2022/01/28 02:15:12;;;;;;;14.43;2.30;;;;;;;6.17;73.77;100853.97;5092979;28;20504;-61
2022/01/28 02:17:39;;;;;;;11.68;2.17;;;;;;;6.16;73.93;100857.50;5094240;28;20121;-61
2022/01/28 02:20:10;;;;;;;12.55;2.65;;;;;;;6.13;73.62;100848.81;5094264;28;20557;-60
2022/01/28 02:22:36;;;;;;;14.65;2.15;;;;;;;6.15;74.35;100860.97;5092981;28;20048;-62
2022/01/28 02:25:03;;;;;;;10.10;2.03;;;;;;;6.15;74.32;100861.84;5094347;28;20056;-60
2022/01/28 02:27:30;;;;;;;20.45;2.97;;;;;;;6.15;74.40;100855.75;5094113;28;20113;-60
2022/01/28 02:29:57;;;;;;;11.07;2.30;;;;;;;6.16;74.26;100868.78;5093644;28;20581;-60
2022/01/28 02:32:24;;;;;;;16.42;3.15;;;;;;;6.17;74.50;100874.91;5093845;28;20051;-60
2022/01/28 02:34:50;;;;;;;13.40;2.20;;;;;;;6.17;74.55;100878.34;5094000;28;20101;-60
2022/01/28 02:37:17;;;;;;;10.35;2.38;;;;;;;6.20;74.67;100874.84;5093982;28;20476;-61
2022/01/28 02:39:44;;;;;;;11.63;2.10;;;;;;;6.21;74.00;100872.16;5093519;28;20378;-60
2022/01/28 02:42:25;;;;;;;14.65;2.35;;;;;;;6.24;74.25;100886.94;5093769;28;20050;-62
2022/01/28 02:44:55;;;;;;;12.20;2.33;;;;;;;6.27;74.20;100889.50;5093721;28;20048;-61
2022/01/28 02:47:35;;;;;;;15.98;1.90;;;;;;;6.28;74.15;100901.66;5092443;28;20048;-60
2022/01/28 02:50:03;;;;;;;11.63;1.70;;;;;;;6.29;73.93;100913.88;5093303;28;20056;-60
2022/01/28 02:52:38;;;;;;;12.05;2.40;;;;;;;6.31;73.97;100922.53;5093509;28;20044;-60
2022/01/28 02:55:09;;;;;;;11.13;2.10;;;;;;;6.32;73.97;100915.56;5093587;28;20040;-60
2022/01/28 02:57:40;;;;;;;11.52;2.33;;;;;;;6.33;73.95;100927.72;5092177;28;20052;-59
2022/01/28 03:00:07;;;;;;;12.85;2.13;;;;;;;6.34;73.70;100919.84;5092925;28;20056;-61
2022/01/28 03:02:33;;;;;;;11.38;2.53;;;;;;;6.35;74.19;100918.97;5092202;28;20048;-62
2022/01/28 03:05:30;;;;;;;22.80;2.67;;;;;;;6.35;74.21;100931.16;5093445;28;20048;-60
2022/01/28 03:07:52;;;;;;;15.80;3.03;;;;;;;6.36;73.96;100933.75;5093136;28;20052;-59
2022/01/28 03:10:42;;;;;;;17.40;2.58;;;;;;;6.37;73.92;100930.28;5092892;28;20048;-60
2022/01/28 03:15:38;;;;;;;18.98;2.70;;;;;;;6.41;73.91;100935.41;5092536;28;20495;-60
2022/01/28 03:21:06;;;;;;;13.65;2.60;;;;;;;6.43;74.15;100944.94;5092939;28;20067;-60
2022/01/28 03:23:24;;;;;;;12.63;2.13;;;;;;;6.45;74.26;100943.19;5093033;28;20125;-62
2022/01/28 03:25:50;;;;;;;14.93;2.15;;;;;;;6.45;74.27;100937.94;5093015;28;20056;-60
2022/01/28 03:28:20;;;;;;;16.88;3.00;;;;;;;6.46;73.96;100936.16;5092822;28;20056;-60
2022/01/28 03:30:46;;;;;;;15.35;3.10;;;;;;;6.46;74.03;100936.16;5092393;28;20051;-59
2022/01/28 03:33:13;;;;;;;13.63;2.33;;;;;;;6.46;74.24;100929.19;5092990;28;20040;-60
2022/01/28 03:35:39;;;;;;;14.13;2.65;;;;;;;6.46;74.03;100939.66;5093020;28;20047;-60
2022/01/28 03:38:11;;;;;;;20.55;2.92;;;;;;;6.46;74.07;100933.56;5092734;28;20097;-62
2022/01/28 03:40:37;;;;;;;13.95;2.85;;;;;;;6.47;74.21;100951.84;5091113;28;20393;-60
2022/01/28 03:43:05;;;;;;;8.45;2.10;;;;;;;6.47;73.91;100932.69;5092537;28;20078;-59
2022/01/28 03:45:32;;;;;;;13.80;3.15;;;;;;;6.47;73.94;100949.22;5092836;28;20056;-60
2022/01/28 03:47:58;;;;;;;21.70;2.85;;;;;;;6.47;73.74;100957.06;5092640;28;20051;-63
2022/01/28 03:50:25;;;;;;;17.15;2.78;;;;;;;6.47;73.76;100962.31;5092201;28;20044;-60
2022/01/28 03:52:51;;;;;;;14.40;2.45;;;;;;;6.47;74.08;100972.75;5092447;28;20112;-60
2022/01/28 03:55:18;;;;;;;14.88;2.85;;;;;;;6.47;73.84;100971.91;5092412;28;20093;-61
2022/01/28 03:57:45;;;;;;;14.18;3.03;;;;;;;6.48;73.43;100973.63;5092196;28;20047;-60
2022/01/28 04:00:12;;;;;;;20.10;3.33;;;;;;;6.47;73.91;100987.63;5092281;28;20571;-61
2022/01/28 04:02:42;;;;;;;12.73;2.58;;;;;;;6.47;74.08;100977.16;5092248;28;20040;-60
2022/01/28 04:13:26;;;;;;;16.75;2.38;;;;;;;6.43;73.43;101004.25;5092204;28;20048;-60
2022/01/28 04:18:25;;;;;;;20.00;2.67;;;;;;;6.39;74.00;101014.78;5091991;28;20075;-61
2022/01/28 04:20:52;;;;;;;15.45;3.17;;;;;;;6.40;74.24;101031.34;5091826;28;20056;-60
2022/01/28 04:23:19;;;;;;;16.83;3.05;;;;;;;6.39;74.13;101025.22;5092129;28;20048;-60
2022/01/28 04:25:45;;;;;;;8.82;2.63;;;;;;;6.41;74.21;101040.91;5091657;28;20500;-61
2022/01/28 04:28:12;;;;;;;17.58;3.10;;;;;;;6.42;74.13;101039.16;5090912;28;20097;-60
2022/01/28 04:30:38;;;;;;;18.15;3.33;;;;;;;6.44;74.42;101045.22;5091390;28;20101;-60
2022/01/28 04:33:09;;;;;;;11.32;2.67;;;;;;;6.46;74.44;101046.03;5091569;28;20059;-60
2022/01/28 04:35:37;;;;;;;15.35;2.53;;;;;;;6.46;74.25;101046.91;5091859;28;20048;-60
2022/01/28 04:40:50;;;;;;;20.50;3.55;;;;;;;6.46;74.09;101061.72;5091637;28;20052;-60
2022/01/28 04:43:26;;;;;;;16.98;2.47;;;;;;;6.47;74.21;101060.84;5091596;28;20086;-60
2022/01/28 04:46:08;;;;;;;17.92;2.75;;;;;;;6.47;74.17;101053.00;5091500;28;20048;-60
2022/01/28 04:51:25;;;;;;;17.98;2.97;;;;;;;6.47;74.00;101048.63;5091049;28;20058;-61
2022/01/28 05:13:01;;;;;;;17.67;3.45;;;;;;;6.46;73.58;101064.34;5090985;28;20476;-60
2022/01/28 05:23:19;;;;;;;16.20;3.35;;;;;;;6.44;73.70;101048.69;5091300;28;20044;-61
2022/01/28 05:28:17;;;;;;;25.08;3.03;;;;;;;6.47;73.90;101064.31;5091191;28;20060;-60
2022/01/28 05:30:43;;;;;;;18.73;3.03;;;;;;;6.48;73.84;101067.81;5090814;28;20105;-60
2022/01/28 05:33:10;;;;;;;15.23;4.00;;;;;;;6.49;74.24;101069.53;5090860;28;20052;-60
2022/01/28 05:35:36;;;;;;;17.60;2.95;;;;;;;6.49;73.98;101085.22;5090931;28;20045;-62
2022/01/28 05:38:03;;;;;;;15.52;2.92;;;;;;;6.50;73.84;101086.94;5092202;28;20044;-61
2022/01/28 05:40:30;;;;;;;17.75;3.47;;;;;;;6.50;73.92;101084.31;5094718;28;20549;-60
2022/01/28 05:42:56;;;;;;;19.98;3.83;;;;;;;6.52;73.75;101106.09;5094779;28;20500;-60
2022/01/28 05:45:23;;;;;;;19.60;2.90;;;;;;;6.53;73.50;101106.97;5094930;28;20047;-63
2022/01/28 05:47:49;;;;;;;16.85;3.03;;;;;;;6.53;73.86;101109.59;5094555;28;20048;-60
2022/01/28 05:50:16;;;;;;;15.50;3.00;;;;;;;6.53;73.78;101118.28;5094467;28;20048;-60
2022/01/28 05:52:42;;;;;;;18.02;3.50;;;;;;;6.53;73.29;101118.28;5095142;28;20044;-60
2022/01/28 05:55:09;;;;;;;14.18;2.97;;;;;;;6.54;73.16;101119.16;5095187;28;20059;-61
2022/01/28 05:57:36;;;;;;;17.95;3.78;;;;;;;6.53;72.71;101115.66;5094536;28;20105;-61
2022/01/28 06:00:05;;;;;;;17.10;3.38;;;;;;;6.50;72.39;101116.59;5094195;28;20051;-60
2022/01/28 06:02:31;;;;;;;15.05;2.85;;;;;;;6.50;72.80;101124.44;5094406;28;20093;-62
2022/01/28 06:04:58;;;;;;;13.98;3.70;;;;;;;6.53;73.25;101122.66;5094506;28;20451;-60
2022/01/28 06:07:25;;;;;;;24.10;4.32;;;;;;;6.51;72.97;101110.47;5094888;28;20052;-59
2022/01/28 06:09:51;;;;;;;27.15;4.25;;;;;;;6.51;73.11;101126.16;5094250;28;20458;-61
2022/01/28 06:12:20;;;;;;;21.60;3.42;;;;;;;6.52;73.19;101121.78;5094235;28;20180;-59
2022/01/28 06:14:46;;;;;;;19.95;3.95;;;;;;;6.53;72.96;101131.34;5093078;28;20124;-60
2022/01/28 06:17:13;;;;;;;13.30;2.97;;;;;;;6.53;73.10;101127.91;5094224;28;20051;-59
2022/01/28 06:19:40;;;;;;;21.33;3.03;;;;;;;6.54;73.21;101138.31;5093784;28;20056;-61
2022/01/28 06:22:06;;;;;;;16.67;2.65;;;;;;;6.55;73.06;101147.91;5094278;28;20055;-59
2022/01/28 06:24:33;;;;;;;17.48;3.05;;;;;;;6.56;73.15;101144.41;5094145;28;20067;-59
2022/01/28 06:26:59;;;;;;;14.25;2.70;;;;;;;6.56;72.85;101149.63;5094061;28;20047;-62
2022/01/28 06:29:26;;;;;;;19.48;4.18;;;;;;;6.57;72.80;101167.03;5093524;28;20213;-62
2022/01/28 06:31:52;;;;;;;20.85;3.42;;;;;;;6.58;72.95;101168.75;5093895;28;20059;-60
2022/01/28 06:34:19;;;;;;;16.63;3.15;;;;;;;6.59;72.77;101169.63;5093754;28;20055;-59
2022/01/28 06:36:46;;;;;;;21.65;3.13;;;;;;;6.60;72.71;101172.22;5093770;28;20641;-62
2022/01/28 06:39:12;;;;;;;23.85;3.85;;;;;;;6.60;72.28;101171.34;5093574;28;20457;-60
2022/01/28 06:41:39;;;;;;;21.85;5.10;;;;;;;6.58;72.43;101179.22;5093892;28;20109;-60
2022/01/28 06:44:06;;;;;;;20.15;3.17;;;;;;;6.57;71.97;101187.97;5093786;28;20048;-59
2022/01/28 06:46:32;;;;;;;21.73;4.18;;;;;;;6.57;72.57;101206.28;5093499;28;20536;-61
2022/01/28 06:48:59;;;;;;;15.52;3.30;;;;;;;6.55;72.26;101209.81;5093118;28;20114;-60
2022/01/28 06:51:25;;;;;;;18.75;2.97;;;;;;;6.54;72.27;101210.72;5092706;28;20051;-60
2022/01/28 06:53:52;;;;;;;13.75;3.63;;;;;;;6.52;72.50;101210.75;5093889;28;20051;-60
2022/01/28 06:56:19;;;;;;;13.05;3.33;;;;;;;6.51;72.47;101214.25;5091735;28;20105;-60
2022/01/28 06:58:45;;;;;;;22.75;3.75;;;;;;;6.50;72.55;101220.34;5093710;28;20051;-60
2022/01/28 07:01:12;;;;;;;24.35;3.67;;;;;;;6.50;72.57;101210.75;5093262;28;20040;-60
2022/01/28 07:03:39;;;;;;;21.17;3.33;;;;;;;6.51;72.46;101209.88;5093429;28;20056;-60
2022/01/28 07:06:06;;;;;;;16.00;4.22;;;;;;;6.51;72.68;101204.63;5093419;28;20488;-60
2022/01/28 07:08:32;;;;;;;16.77;3.47;;;;;;;6.52;72.55;101215.97;5093407;28;20048;-60
2022/01/28 07:10:59;;;;;;;17.58;3.20;;;;;;;6.53;72.63;101216.84;5092324;28;20101;-62
2022/01/28 07:13:25;;;;;;;17.13;3.67;;;;;;;6.53;72.86;101216.84;5093324;28;20564;-60
2022/01/28 07:15:52;;;;;;;17.80;3.53;;;;;;;6.53;72.59;101230.78;5092670;28;20044;-60
2022/01/28 07:18:19;;;;;;;21.02;3.35;;;;;;;6.54;72.89;101242.97;5093203;28;20048;-62
2022/01/28 07:20:46;;;;;;;25.58;3.45;;;;;;;6.55;72.50;101242.09;5092883;28;20048;-60
2022/01/28 07:23:12;;;;;;;17.77;3.58;;;;;;;6.56;72.73;101243.81;5093210;28;20044;-60
2022/01/28 07:25:39;;;;;;;21.88;4.65;;;;;;;6.55;72.82;101252.56;5093051;28;20051;-61
2022/01/28 07:28:05;;;;;;;17.70;4.07;;;;;;;6.57;72.67;101255.13;5093129;28;20125;-61
2022/01/28 07:30:32;;;;;;;20.65;3.97;;;;;;;6.58;72.88;101262.09;5092418;28;20507;-60
2022/01/28 07:33:00;;;;;;;15.60;3.70;;;;;;;6.59;72.93;101262.09;5093139;28;20040;-60
2022/01/28 07:35:27;;;;;;;22.17;4.00;;;;;;;6.60;73.18;101271.66;5091945;28;20138;-60
2022/01/28 07:37:54;;;;;;;23.38;3.58;;;;;;;6.62;72.95;101272.47;5092912;28;20521;-60
2022/01/28 07:40:21;;;;;;;18.65;3.50;;;;;;;6.63;72.94;101269.00;5091207;28;20549;-59
2022/01/28 07:42:47;;;;;;;12.25;2.78;;;;;;;6.66;73.18;101268.09;5092567;28;20051;-60
2022/01/28 07:45:15;;;;;;;18.67;3.53;;;;;;;6.67;73.23;101261.06;5092664;28;20048;-60
2022/01/28 07:47:43;;;;;;;19.60;3.67;;;;;;;6.69;72.76;101275.03;5090647;28;20051;-61
2022/01/28 07:50:12;;;;;;;19.63;3.10;;;;;;;6.70;72.66;101281.97;5090849;28;20051;-62
2022/01/28 07:52:39;;;;;;;19.50;3.60;;;;;;;6.71;73.00;101284.56;5091095;28;20485;-60
2022/01/28 07:55:09;;;;;;;15.23;3.33;;;;;;;6.72;72.86;101286.28;5092404;28;20048;-60
2022/01/28 07:57:36;;;;;;;21.20;2.83;;;;;;;6.72;73.13;101288.91;5091354;28;20121;-62
2022/01/28 08:00:05;;;;;;;17.52;3.15;;;;;;;6.74;73.09;101294.13;5092042;28;20060;-59
2022/01/28 08:02:31;;;;;;;28.60;4.82;;;;;;;6.76;73.15;101290.59;5092236;28;20052;-60
2022/01/28 08:04:58;;;;;;;18.52;3.92;;;;;;;6.76;72.50;101287.97;5092220;28;20058;-61
2022/01/28 08:07:26;;;;;;;24.70;4.30;;;;;;;6.78;72.53;101288.78;5092233;28;20104;-61
2022/01/28 08:09:52;;;;;;;20.55;3.70;;;;;;;6.78;72.94;101293.19;5091710;28;20127;-60
2022/01/28 08:12:19;;;;;;;27.67;3.85;;;;;;;6.78;72.70;101291.41;5091944;28;20103;-60
2022/01/28 08:14:46;;;;;;;22.60;3.78;;;;;;;6.78;72.04;101296.66;5091894;28;20056;-60
2022/01/28 08:17:12;;;;;;;15.45;3.22;;;;;;;6.77;72.58;101305.41;5092075;28;20056;-63
2022/01/28 08:19:39;;;;;;;10.63;2.80;;;;;;;6.78;72.40;101317.59;5091804;28;20081;-60
2022/01/28 08:22:06;;;;;;;22.02;2.78;;;;;;;6.78;72.72;101319.34;5091557;28;20051;-60
2022/01/28 08:24:33;;;;;;;20.42;3.38;;;;;;;6.80;73.09;101314.94;5091783;28;20050;-61
2022/01/28 08:26:59;;;;;;;15.50;3.45;;;;;;;6.82;72.93;101318.41;5092088;28;20051;-60
2022/01/28 08:29:26;;;;;;;23.70;3.63;;;;;;;6.85;72.95;101318.38;5091700;28;20048;-59
2022/01/28 08:31:52;;;;;;;25.75;4.03;;;;;;;6.89;73.39;101327.88;5091722;28;20056;-63
2022/01/28 08:34:19;;;;;;;22.40;4.15;;;;;;;6.92;72.62;101327.00;5091821;28;20044;-61
2022/01/28 08:36:46;;;;;;;27.25;4.05;;;;;;;6.94;72.71;101338.28;5091573;28;20048;-60
2022/01/28 08:39:14;;;;;;;17.42;3.38;;;;;;;6.96;72.44;101335.66;5091275;28;20116;-60
2022/01/28 08:41:43;;;;;;;18.90;3.20;;;;;;;6.98;72.37;101344.31;5091649;28;20694;-60
2022/01/28 08:44:14;;;;;;;24.27;4.35;;;;;;;6.98;72.15;101349.56;5091341;28;20067;-61
2022/01/28 08:46:41;;;;;;;18.23;3.70;;;;;;;6.99;72.06;101362.63;5091419;28;20386;-62
2022/01/28 08:49:07;;;;;;;21.75;3.78;;;;;;;7.00;72.25;101368.75;5091349;28;20044;-61
2022/01/28 08:51:36;;;;;;;16.08;3.75;;;;;;;7.01;72.07;101371.34;5091264;28;20155;-60
2022/01/28 08:54:03;;;;;;;15.25;3.50;;;;;;;7.01;72.11;101380.94;5091583;28;20055;-60
2022/01/28 08:56:29;;;;;;;25.65;4.13;;;;;;;7.01;72.08;101378.31;5091540;28;20442;-60
2022/01/28 08:58:56;;;;;;;23.73;4.20;;;;;;;7.01;72.04;101380.94;5091224;28;20476;-61
2022/01/28 09:01:22;;;;;;;23.35;3.60;;;;;;;7.01;71.72;101384.44;5091035;28;20495;-60
2022/01/28 09:03:51;;;;;;;24.67;3.67;;;;;;;7.01;72.11;101396.66;5091254;28;20101;-63
2022/01/28 09:06:18;;;;;;;24.27;3.72;;;;;;;7.02;72.44;101398.38;5091387;28;20052;-60
2022/01/28 09:08:44;;;;;;;17.00;3.67;;;;;;;7.03;72.37;101389.66;5091318;28;20097;-62
2022/01/28 09:13:50;;;;;;;22.13;4.40;;;;;;;7.09;72.80;101397.41;5090622;28;20097;-62
2022/01/28 09:16:17;;;;;;;19.17;3.78;;;;;;;7.14;72.71;101403.41;5089876;28;20056;-60
2022/01/28 09:18:45;;;;;;;18.88;3.55;;;;;;;7.19;72.62;101407.72;5090808;28;20059;-60
2022/01/28 09:21:12;;;;;;;17.27;3.63;;;;;;;7.22;72.80;101410.31;5089785;28;20056;-59
2022/01/28 09:23:39;;;;;;;21.23;3.85;;;;;;;7.26;72.44;101409.38;5091105;28;20044;-60
2022/01/28 09:26:06;;;;;;;19.65;4.10;;;;;;;7.28;72.39;101408.44;5089689;28;20055;-60
2022/01/28 09:28:33;;;;;;;18.30;3.28;;;;;;;7.33;72.76;101421.44;5090936;28;20059;-60
2022/01/28 09:31:00;;;;;;;22.35;4.03;;;;;;;7.37;72.63;101425.75;5090552;28;20048;-61
2022/01/28 09:33:26;;;;;;;20.25;3.20;;;;;;;7.41;72.98;101422.19;5091184;28;20059;-60
2022/01/28 09:35:54;;;;;;;20.60;4.03;;;;;;;7.48;72.47;101422.94;5091110;28;20094;-60
2022/01/28 09:38:21;;;;;;;20.83;3.85;;;;;;;7.52;72.58;101424.63;5090892;28;20084;-60
2022/01/28 09:40:49;;;;;;;20.02;3.80;;;;;;;7.57;72.54;101427.19;5090711;28;20048;-60
2022/01/28 09:43:15;;;;;;;16.45;3.45;;;;;;;7.61;72.57;101418.38;5090856;28;20496;-62
2022/01/28 09:45:47;;;;;;;30.15;3.70;;;;;;;7.65;71.07;101425.28;5089440;28;20105;-62
2022/01/28 09:48:19;;;;;;;17.73;2.90;;;;;;;7.69;71.43;101437.44;5089893;28;20055;-60
2022/01/28 09:50:46;;;;;;;22.43;4.37;;;;;;;7.77;72.47;101431.19;5089316;28;20048;-60
2022/01/28 09:53:14;;;;;;;18.05;3.30;;;;;;;7.82;72.42;101439.84;5090819;28;20097;-60
2022/01/28 09:55:42;;;;;;;18.75;3.08;;;;;;;7.88;72.27;101441.47;5089613;28;20040;-60
2022/01/28 09:58:09;;;;;;;23.92;3.55;;;;;;;7.92;71.95;101437.91;5090617;28;20105;-61
2022/01/28 10:00:35;;;;;;;22.85;4.05;;;;;;;7.97;71.83;101440.47;5089378;28;20105;-62
2022/01/28 10:03:11;;;;;;;22.88;3.53;;;;;;;8.01;70.43;101452.63;5090586;28;20048;-60
2022/01/28 10:05:42;;;;;;;22.27;3.90;;;;;;;8.08;71.89;101454.25;5089639;28;20110;-62
2022/01/28 10:08:14;;;;;;;26.35;4.03;;;;;;;8.18;72.14;101458.41;5089365;28;20055;-60
2022/01/28 10:11:07;;;;;;;18.83;3.22;;;;;;;8.25;69.46;101450.41;5090512;28;20109;-62
2022/01/28 10:13:44;;;;;;;19.23;3.95;;;;;;;8.39;71.29;101458.00;5089429;28;20447;-60
2022/01/28 10:16:22;;;;;;;20.08;3.88;;;;;;;8.45;69.47;101458.72;5090660;28;20055;-60
2022/01/28 10:18:58;;;;;;;14.70;2.90;;;;;;;8.53;69.43;101463.88;5090466;28;20488;-60
2022/01/28 10:21:38;;;;;;;18.08;3.83;;;;;;;8.58;68.59;101448.03;5090470;28;20048;-60
2022/01/28 10:24:13;;;;;;;15.95;3.40;;;;;;;8.63;69.09;101453.19;5090499;28;20063;-63
2022/01/28 10:27:07;;;;;;;17.52;4.07;;;;;;;8.63;68.28;101446.16;5092698;28;20491;-61
2022/01/28 10:29:36;;;;;;;24.50;3.67;;;;;;;8.68;69.89;101446.06;5093842;28;20401;-61
2022/01/28 10:32:06;;;;;;;22.98;4.00;;;;;;;8.67;68.42;101452.22;5092918;28;20048;-60
2022/01/28 10:34:33;;;;;;;16.40;3.17;;;;;;;8.70;69.67;101457.38;5092878;28;20063;-63
2022/01/28 10:37:16;;;;;;;16.58;3.38;;;;;;;8.67;66.85;101468.81;5094059;28;20051;-61
2022/01/28 10:40:00;;;;;;;19.02;3.38;;;;;;;8.72;67.66;101461.69;5093651;28;20101;-59
2022/01/28 10:42:49;;;;;;;20.58;2.95;;;;;;;8.72;66.99;101455.59;5094115;28;20048;-60
2022/01/28 10:45:19;;;;;;;18.40;3.63;;;;;;;8.78;68.92;101460.72;5093974;28;20056;-62
2022/01/28 10:47:54;;;;;;;26.88;3.78;;;;;;;8.78;67.38;101457.25;5092576;28;20507;-62
2022/01/28 10:50:37;;;;;;;17.35;3.55;;;;;;;8.78;65.98;101455.47;5093426;28;20446;-61
2022/01/28 10:53:04;;;;;;;;;;;;;;;8.86;66.98;101455.31;5092873;28;20051;-61
2022/01/28 10:55:33;;;;;;;18.35;3.50;;;;;;;8.94;69.27;101455.13;5093615;28;20003;-61
2022/01/28 10:58:06;;;;;;;18.30;4.05;;;;;;;8.96;66.74;101458.56;5092377;28;20052;-61
2022/01/28 11:00:38;;;;;;;16.08;3.47;;;;;;;9.02;68.52;101462.81;5091863;28;20090;-61
2022/01/28 11:03:06;;;;;;;18.33;3.20;;;;;;;9.07;68.86;101459.19;5092492;28;20047;-60
2022/01/28 11:05:35;;;;;;;27.05;4.55;;;;;;;9.13;68.88;101473.97;5093553;28;20393;-61
2022/01/28 11:08:04;;;;;;;16.67;3.20;;;;;;;9.19;68.71;101467.69;5092179;28;20052;-61
2022/01/28 11:10:30;;;;;;;16.33;3.80;;;;;;;9.23;68.69;101472.84;5092918;28;20458;-61
2022/01/28 11:12:58;;;;;;;16.05;3.25;;;;;;;9.29;68.19;101465.69;5093212;28;20101;-61
2022/01/28 11:15:26;;;;;;;18.45;3.38;;;;;;;9.32;68.07;101455.13;5092163;28;20056;-60
2022/01/28 11:17:53;;;;;;;25.02;4.18;;;;;;;9.37;68.14;101463.75;5092043;28;20052;-60
2022/01/28 11:20:25;;;;;;;21.00;3.70;;;;;;;9.37;65.61;101456.75;5092963;28;20171;-60
2022/01/28 11:23:04;;;;;;;22.17;3.80;;;;;;;9.40;65.85;101455.78;5093103;28;20819;-61
2022/01/28 11:25:54;;;;;;;18.58;2.90;;;;;;;9.44;64.93;101469.72;5092954;28;20071;-60
2022/01/28 11:28:38;;;;;;;19.95;3.25;;;;;;;9.47;65.20;101469.66;5093366;28;20060;-62
2022/01/28 11:31:05;;;;;;;20.33;3.80;;;;;;;9.56;67.92;101471.16;5092771;28;20048;-62
2022/01/28 11:33:45;;;;;;;22.75;3.45;;;;;;;9.57;65.24;101465.88;5092655;28;20048;-60
2022/01/28 11:36:12;;;;;;;17.58;2.63;;;;;;;9.67;67.78;101474.41;5092331;28;20058;-60
2022/01/28 11:38:44;;;;;;;26.10;4.10;;;;;;;9.70;66.83;101463.81;5092577;28;20106;-61
2022/01/28 11:41:24;;;;;;;24.23;3.78;;;;;;;9.77;64.25;101461.88;5092393;28;20500;-60
2022/01/28 11:43:54;;;;;;;19.60;3.38;;;;;;;9.85;66.54;101457.28;5091493;28;20135;-61
2022/01/28 11:46:23;;;;;;;17.98;3.47;;;;;;;9.92;65.91;101458.00;5091367;28;20056;-60
2022/01/28 11:48:54;;;;;;;16.88;2.75;;;;;;;9.98;65.65;101454.34;5091066;28;20067;-60
2022/01/28 11:51:23;;;;;;;25.55;3.33;;;;;;;10.07;67.01;101461.09;5092001;28;20050;-61
2022/01/28 11:53:58;;;;;;;16.60;3.60;;;;;;;10.15;64.62;101461.75;5091130;28;20063;-61
2022/01/28 11:56:26;;;;;;;25.85;4.18;;;;;;;10.29;67.37;101467.47;5090946;28;20591;-62
2022/01/28 11:59:00;;;;;;;14.82;3.13;;;;;;;10.41;67.08;101454.91;5092172;28;20484;-60
2022/01/28 12:01:35;;;;;;;25.58;4.38;;;;;;;10.52;63.25;101458.13;5092411;28;20068;-60
2022/01/28 12:04:24;;;;;;;22.70;4.00;;;;;;;10.68;64.06;101457.66;5092314;28;20102;-60
2022/01/28 12:07:10;;;;;;;18.08;2.75;;;;;;;10.89;64.28;101448.25;5092168;28;20051;-60
2022/01/28 12:09:38;;;;;;;14.27;3.67;;;;;;;11.16;66.88;101447.41;5091891;28;20101;-60
2022/01/28 12:12:10;;;;;;;19.60;3.08;;;;;;;11.34;64.13;101457.34;5090596;28;20048;-61
2022/01/28 12:14:49;;;;;;;22.10;3.88;;;;;;;11.44;61.41;101450.00;5091027;28;20047;-60
2022/01/28 12:17:31;;;;;;;16.15;2.97;;;;;;;11.46;60.65;101448.19;5092011;28;20051;-62
2022/01/28 12:20:21;;;;;;;20.05;3.78;;;;;;;11.40;58.77;101448.38;5091629;28;20110;-61
2022/01/28 12:23:01;;;;;;;14.55;3.28;;;;;;;11.27;59.27;101432.13;5090864;28;20052;-61
2022/01/28 12:25:36;;;;;;;18.30;3.92;;;;;;;11.14;58.83;101443.97;5090605;28;20488;-61
2022/01/28 12:28:31;;;;;;;16.45;3.00;;;;;;;10.96;59.57;101435.75;5090508;28;20090;-60
2022/01/28 12:31:21;;;;;;;15.57;3.28;;;;;;;10.84;60.66;101438.75;5091679;28;20048;-62
2022/01/28 12:33:51;;;;;;;16.63;3.13;;;;;;;10.69;61.57;101436.53;5091735;28;20055;-62
2022/01/28 12:36:32;;;;;;;20.13;2.67;;;;;;;10.53;59.21;101441.41;5090469;28;20081;-61
2022/01/28 12:39:11;;;;;;;18.83;2.75;;;;;;;10.45;60.55;101442.53;5091691;28;20059;-60
2022/01/28 12:41:51;;;;;;;14.35;2.85;;;;;;;10.33;60.19;101449.84;5091637;28;20055;-59
2022/01/28 12:44:18;;;;;;;19.30;3.53;;;;;;;10.28;62.61;101451.75;5090632;28;20051;-60
2022/01/28 12:46:55;;;;;;;18.02;3.42;;;;;;;10.22;61.15;101441.38;5089871;28;20548;-60
2022/01/28 12:49:30;;;;;;;18.30;3.03;;;;;;;10.21;61.01;101435.25;5089615;28;20120;-61
2022/01/28 12:52:06;;;;;;;20.90;4.05;;;;;;;10.22;61.40;101434.38;5090308;28;20051;-61
2022/01/28 12:54:44;;;;;;;15.75;3.00;;;;;;;10.21;59.57;101424.72;5090294;28;20055;-60
2022/01/28 12:57:21;;;;;;;18.33;2.97;;;;;;;10.29;63.24;101422.75;5091596;28;20044;-60